sensor_id;sensor_type;location;lat;lon;timestamp;P1;durP1;ratioP1;P2;durP2;ratioP2
57627;SDS011;43451;49.060;10.616;2023-12-04T00:01:45;30.85;;;11.52;;
57627;SDS011;43451;49.060;10.616;2023-12-04T00:07:12;23.77;;;9.50;;
57627;SDS011;43451;49.060;10.616;2023-12-04T00:09:41;23.13;;;9.50;;
57627;SDS011;43451;49.060;10.616;2023-12-04T00:17:04;26.88;;;10.48;;
57627;SDS011;43451;49.060;10.616;2023-12-04T00:19:29;27.80;;;10.60;;
57627;SDS011;43451;49.060;10.616;2023-12-04T00:21:57;25.45;;;10.60;;
57627;SDS011;43451;49.060;10.616;2023-12-04T00:24:22;25.48;;;10.13;;
57627;SDS011;43451;49.060;10.616;2023-12-04T00:26:47;26.92;;;9.25;;
57627;SDS011;43451;49.060;10.616;2023-12-04T00:29:13;24.35;;;10.23;;
57627;SDS011;43451;49.060;10.616;2023-12-04T00:31:38;27.75;;;10.80;;
57627;SDS011;43451;49.060;10.616;2023-12-04T00:34:09;27.90;;;10.15;;
57627;SDS011;43451;49.060;10.616;2023-12-04T00:36:34;24.35;;;10.00;;
57627;SDS011;43451;49.060;10.616;2023-12-04T00:38:59;23.13;;;9.48;;
57627;SDS011;43451;49.060;10.616;2023-12-04T00:41:31;22.27;;;9.05;;
57627;SDS011;43451;49.060;10.616;2023-12-04T00:43:57;24.00;;;9.70;;
57627;SDS011;43451;49.060;10.616;2023-12-04T00:46:34;22.80;;;9.20;;
57627;SDS011;43451;49.060;10.616;2023-12-04T00:49:00;25.23;;;10.13;;
57627;SDS011;43451;49.060;10.616;2023-12-04T00:51:36;23.38;;;9.63;;
57627;SDS011;43451;49.060;10.616;2023-12-04T00:54:08;22.20;;;9.40;;
57627;SDS011;43451;49.060;10.616;2023-12-04T00:56:34;26.73;;;9.18;;
57627;SDS011;43451;49.060;10.616;2023-12-04T01:01:37;22.08;;;9.02;;
57627;SDS011;43451;49.060;10.616;2023-12-04T01:06:32;22.92;;;9.75;;
57627;SDS011;43451;49.060;10.616;2023-12-04T01:20:23;21.42;;;8.75;;
57627;SDS011;43451;49.060;10.616;2023-12-04T01:22:50;24.15;;;9.88;;
57627;SDS011;43451;49.060;10.616;2023-12-04T01:25:17;26.55;;;9.45;;
57627;SDS011;43451;49.060;10.616;2023-12-04T01:27:56;25.10;;;10.77;;
57627;SDS011;43451;49.060;10.616;2023-12-04T01:33:11;24.50;;;9.90;;
57627;SDS011;43451;49.060;10.616;2023-12-04T01:35:42;23.85;;;9.15;;
57627;SDS011;43451;49.060;10.616;2023-12-04T01:38:07;21.35;;;8.95;;
57627;SDS011;43451;49.060;10.616;2023-12-04T01:40:33;21.80;;;8.95;;
57627;SDS011;43451;49.060;10.616;2023-12-04T01:42:59;22.40;;;9.13;;
57627;SDS011;43451;49.060;10.616;2023-12-04T01:45:24;22.50;;;9.23;;
57627;SDS011;43451;49.060;10.616;2023-12-04T01:50:40;22.00;;;9.00;;
57627;SDS011;43451;49.060;10.616;2023-12-04T01:55:52;20.45;;;8.50;;
57627;SDS011;43451;49.060;10.616;2023-12-04T01:58:18;19.25;;;8.38;;
57627;SDS011;43451;49.060;10.616;2023-12-04T02:01:02;23.55;;;10.02;;
57627;SDS011;43451;49.060;10.616;2023-12-04T02:03:27;21.23;;;8.68;;
57627;SDS011;43451;49.060;10.616;2023-12-04T02:05:53;20.40;;;9.10;;
57627;SDS011;43451;49.060;10.616;2023-12-04T02:08:35;22.58;;;9.05;;
57627;SDS011;43451;49.060;10.616;2023-12-04T02:11:00;22.20;;;9.25;;
57627;SDS011;43451;49.060;10.616;2023-12-04T02:16:13;23.77;;;8.80;;
57627;SDS011;43451;49.060;10.616;2023-12-04T02:18:50;18.83;;;7.85;;
57627;SDS011;43451;49.060;10.616;2023-12-04T02:24:14;18.08;;;7.68;;
57627;SDS011;43451;49.060;10.616;2023-12-04T02:29:59;20.13;;;9.15;;
57627;SDS011;43451;49.060;10.616;2023-12-04T02:32:31;22.63;;;9.20;;
57627;SDS011;43451;49.060;10.616;2023-12-04T02:35:09;24.95;;;8.93;;
57627;SDS011;43451;49.060;10.616;2023-12-04T02:37:39;22.45;;;8.65;;
57627;SDS011;43451;49.060;10.616;2023-12-04T02:43:11;20.52;;;8.48;;
57627;SDS011;43451;49.060;10.616;2023-12-04T02:45:43;22.13;;;8.80;;
57627;SDS011;43451;49.060;10.616;2023-12-04T02:48:08;20.13;;;9.02;;
57627;SDS011;43451;49.060;10.616;2023-12-04T02:50:37;20.77;;;8.68;;
57627;SDS011;43451;49.060;10.616;2023-12-04T02:53:05;24.70;;;9.23;;
57627;SDS011;43451;49.060;10.616;2023-12-04T02:55:39;21.75;;;8.90;;
57627;SDS011;43451;49.060;10.616;2023-12-04T02:58:04;21.38;;;8.75;;
57627;SDS011;43451;49.060;10.616;2023-12-04T03:00:29;24.63;;;9.65;;
57627;SDS011;43451;49.060;10.616;2023-12-04T03:02:55;24.08;;;8.82;;
57627;SDS011;43451;49.060;10.616;2023-12-04T03:05:20;21.80;;;8.77;;
57627;SDS011;43451;49.060;10.616;2023-12-04T03:07:57;27.27;;;9.65;;
57627;SDS011;43451;49.060;10.616;2023-12-04T03:10:22;24.30;;;9.05;;
57627;SDS011;43451;49.060;10.616;2023-12-04T03:12:47;22.88;;;9.07;;
57627;SDS011;43451;49.060;10.616;2023-12-04T03:15:13;22.90;;;8.75;;
57627;SDS011;43451;49.060;10.616;2023-12-04T03:17:39;22.38;;;9.05;;
57627;SDS011;43451;49.060;10.616;2023-12-04T03:20:06;22.05;;;9.18;;
57627;SDS011;43451;49.060;10.616;2023-12-04T03:22:36;23.60;;;9.73;;
57627;SDS011;43451;49.060;10.616;2023-12-04T03:25:02;25.42;;;9.48;;
57627;SDS011;43451;49.060;10.616;2023-12-04T03:27:40;19.52;;;8.48;;
57627;SDS011;43451;49.060;10.616;2023-12-04T03:30:13;20.35;;;8.55;;
57627;SDS011;43451;49.060;10.616;2023-12-04T03:32:49;23.83;;;9.32;;
57627;SDS011;43451;49.060;10.616;2023-12-04T03:38:18;24.20;;;8.35;;
57627;SDS011;43451;49.060;10.616;2023-12-04T03:40:45;22.92;;;8.40;;
57627;SDS011;43451;49.060;10.616;2023-12-04T03:45:43;20.38;;;8.90;;
57627;SDS011;43451;49.060;10.616;2023-12-04T03:48:09;25.67;;;9.18;;
57627;SDS011;43451;49.060;10.616;2023-12-04T03:50:37;23.38;;;9.40;;
57627;SDS011;43451;49.060;10.616;2023-12-04T03:53:09;23.27;;;9.57;;
57627;SDS011;43451;49.060;10.616;2023-12-04T03:55:35;24.58;;;9.70;;
57627;SDS011;43451;49.060;10.616;2023-12-04T03:58:13;21.73;;;9.75;;
57627;SDS011;43451;49.060;10.616;2023-12-04T04:00:44;21.85;;;8.45;;
57627;SDS011;43451;49.060;10.616;2023-12-04T04:05:38;25.27;;;10.40;;
57627;SDS011;43451;49.060;10.616;2023-12-04T04:08:15;23.38;;;9.40;;
57627;SDS011;43451;49.060;10.616;2023-12-04T04:13:42;21.70;;;9.13;;
57627;SDS011;43451;49.060;10.616;2023-12-04T04:18:53;25.85;;;9.38;;
57627;SDS011;43451;49.060;10.616;2023-12-04T04:21:20;25.77;;;10.30;;
57627;SDS011;43451;49.060;10.616;2023-12-04T04:23:46;25.45;;;10.27;;
57627;SDS011;43451;49.060;10.616;2023-12-04T04:26:11;22.88;;;9.65;;
57627;SDS011;43451;49.060;10.616;2023-12-04T04:28:36;25.08;;;10.00;;
57627;SDS011;43451;49.060;10.616;2023-12-04T04:31:04;21.02;;;9.48;;
57627;SDS011;43451;49.060;10.616;2023-12-04T04:33:43;25.70;;;10.05;;
57627;SDS011;43451;49.060;10.616;2023-12-04T04:36:16;24.77;;;9.60;;
57627;SDS011;43451;49.060;10.616;2023-12-04T04:38:43;25.63;;;9.80;;
57627;SDS011;43451;49.060;10.616;2023-12-04T04:41:16;24.10;;;10.73;;
57627;SDS011;43451;49.060;10.616;2023-12-04T04:46:26;24.23;;;9.70;;
57627;SDS011;43451;49.060;10.616;2023-12-04T04:51:49;26.08;;;10.35;;
57627;SDS011;43451;49.060;10.616;2023-12-04T04:54:32;24.67;;;10.25;;
57627;SDS011;43451;49.060;10.616;2023-12-04T04:57:16;25.27;;;10.50;;
57627;SDS011;43451;49.060;10.616;2023-12-04T04:59:46;28.02;;;11.40;;
57627;SDS011;43451;49.060;10.616;2023-12-04T05:02:12;27.77;;;11.25;;
57627;SDS011;43451;49.060;10.616;2023-12-04T05:04:37;27.92;;;11.65;;
57627;SDS011;43451;49.060;10.616;2023-12-04T05:07:02;27.88;;;11.65;;
57627;SDS011;43451;49.060;10.616;2023-12-04T05:09:28;26.88;;;11.68;;
57627;SDS011;43451;49.060;10.616;2023-12-04T05:17:19;26.08;;;11.77;;
57627;SDS011;43451;49.060;10.616;2023-12-04T05:19:44;28.80;;;12.32;;
57627;SDS011;43451;49.060;10.616;2023-12-04T05:22:17;32.83;;;12.45;;
57627;SDS011;43451;49.060;10.616;2023-12-04T05:24:43;28.85;;;11.68;;
57627;SDS011;43451;49.060;10.616;2023-12-04T05:27:08;25.35;;;11.05;;
57627;SDS011;43451;49.060;10.616;2023-12-04T05:29:34;25.83;;;11.27;;
57627;SDS011;43451;49.060;10.616;2023-12-04T05:31:59;25.42;;;11.27;;
57627;SDS011;43451;49.060;10.616;2023-12-04T05:34:24;28.02;;;12.27;;
57627;SDS011;43451;49.060;10.616;2023-12-04T05:36:50;26.95;;;11.60;;
57627;SDS011;43451;49.060;10.616;2023-12-04T05:39:15;26.05;;;12.07;;
57627;SDS011;43451;49.060;10.616;2023-12-04T05:41:42;25.80;;;11.43;;
57627;SDS011;43451;49.060;10.616;2023-12-04T05:44:07;29.05;;;11.98;;
57627;SDS011;43451;49.060;10.616;2023-12-04T05:46:39;26.33;;;12.02;;
57627;SDS011;43451;49.060;10.616;2023-12-04T05:49:13;29.42;;;11.60;;
57627;SDS011;43451;49.060;10.616;2023-12-04T05:54:17;28.25;;;12.07;;
57627;SDS011;43451;49.060;10.616;2023-12-04T05:56:45;25.98;;;11.23;;
57627;SDS011;43451;49.060;10.616;2023-12-04T05:59:10;28.10;;;11.65;;
57627;SDS011;43451;49.060;10.616;2023-12-04T06:01:37;29.27;;;11.65;;
57627;SDS011;43451;49.060;10.616;2023-12-04T06:04:12;29.08;;;12.52;;
57627;SDS011;43451;49.060;10.616;2023-12-04T06:06:37;30.40;;;12.70;;
57627;SDS011;43451;49.060;10.616;2023-12-04T06:09:09;26.15;;;11.18;;
57627;SDS011;43451;49.060;10.616;2023-12-04T06:11:34;26.63;;;11.57;;
57627;SDS011;43451;49.060;10.616;2023-12-04T06:14:00;24.52;;;11.20;;
57627;SDS011;43451;49.060;10.616;2023-12-04T06:16:25;27.83;;;11.52;;
57627;SDS011;43451;49.060;10.616;2023-12-04T06:19:04;28.27;;;12.27;;
57627;SDS011;43451;49.060;10.616;2023-12-04T06:28:18;30.10;;;12.43;;
57627;SDS011;43451;49.060;10.616;2023-12-04T06:30:49;28.15;;;11.27;;
57627;SDS011;43451;49.060;10.616;2023-12-04T06:33:28;29.10;;;12.15;;
57627;SDS011;43451;49.060;10.616;2023-12-04T06:35:53;27.60;;;11.95;;
57627;SDS011;43451;49.060;10.616;2023-12-04T06:38:19;26.33;;;11.55;;
57627;SDS011;43451;49.060;10.616;2023-12-04T06:40:49;27.05;;;11.27;;
57627;SDS011;43451;49.060;10.616;2023-12-04T06:43:15;28.50;;;10.90;;
57627;SDS011;43451;49.060;10.616;2023-12-04T06:45:43;26.50;;;10.63;;
57627;SDS011;43451;49.060;10.616;2023-12-04T06:48:16;24.52;;;11.43;;
57627;SDS011;43451;49.060;10.616;2023-12-04T06:50:42;27.05;;;11.65;;
57627;SDS011;43451;49.060;10.616;2023-12-04T06:53:07;26.75;;;11.40;;
57627;SDS011;43451;49.060;10.616;2023-12-04T06:55:33;27.45;;;11.13;;
57627;SDS011;43451;49.060;10.616;2023-12-04T06:57:58;25.27;;;11.05;;
57627;SDS011;43451;49.060;10.616;2023-12-04T07:00:34;26.05;;;11.20;;
57627;SDS011;43451;49.060;10.616;2023-12-04T07:02:59;24.52;;;10.70;;
57627;SDS011;43451;49.060;10.616;2023-12-04T07:05:33;26.15;;;10.93;;
57627;SDS011;43451;49.060;10.616;2023-12-04T07:08:04;24.38;;;10.85;;
57627;SDS011;43451;49.060;10.616;2023-12-04T07:10:39;23.75;;;11.10;;
57627;SDS011;43451;49.060;10.616;2023-12-04T07:13:05;26.02;;;11.68;;
57627;SDS011;43451;49.060;10.616;2023-12-04T07:18:25;28.00;;;12.20;;
57627;SDS011;43451;49.060;10.616;2023-12-04T07:20:58;26.45;;;11.55;;
57627;SDS011;43451;49.060;10.616;2023-12-04T07:23:23;25.58;;;11.32;;
57627;SDS011;43451;49.060;10.616;2023-12-04T07:25:49;31.45;;;12.05;;
57627;SDS011;43451;49.060;10.616;2023-12-04T07:28:16;27.23;;;12.27;;
57627;SDS011;43451;49.060;10.616;2023-12-04T07:30:43;23.58;;;11.45;;
57627;SDS011;43451;49.060;10.616;2023-12-04T07:33:08;26.00;;;10.93;;
57627;SDS011;43451;49.060;10.616;2023-12-04T07:35:33;25.85;;;11.05;;
57627;SDS011;43451;49.060;10.616;2023-12-04T07:40:48;24.60;;;10.90;;
57627;SDS011;43451;49.060;10.616;2023-12-04T07:43:13;25.15;;;11.60;;
57627;SDS011;43451;49.060;10.616;2023-12-04T07:45:39;26.10;;;10.77;;
57627;SDS011;43451;49.060;10.616;2023-12-04T07:48:04;28.92;;;11.90;;
57627;SDS011;43451;49.060;10.616;2023-12-04T07:50:43;24.58;;;11.50;;
57627;SDS011;43451;49.060;10.616;2023-12-04T07:53:17;23.92;;;11.07;;
57627;SDS011;43451;49.060;10.616;2023-12-04T07:55:42;25.98;;;12.02;;
57627;SDS011;43451;49.060;10.616;2023-12-04T07:58:09;23.48;;;10.70;;
57627;SDS011;43451;49.060;10.616;2023-12-04T08:00:34;28.65;;;12.32;;
57627;SDS011;43451;49.060;10.616;2023-12-04T08:03:00;25.05;;;12.13;;
57627;SDS011;43451;49.060;10.616;2023-12-04T08:05:25;25.05;;;11.55;;
57627;SDS011;43451;49.060;10.616;2023-12-04T08:07:52;24.40;;;11.07;;
57627;SDS011;43451;49.060;10.616;2023-12-04T08:10:17;24.55;;;11.35;;
57627;SDS011;43451;49.060;10.616;2023-12-04T08:16:17;22.50;;;10.50;;
57627;SDS011;43451;49.060;10.616;2023-12-04T08:18:42;25.67;;;11.88;;
57627;SDS011;43451;49.060;10.616;2023-12-04T08:21:13;26.00;;;11.10;;
57627;SDS011;43451;49.060;10.616;2023-12-04T08:23:39;25.40;;;11.02;;
57627;SDS011;43451;49.060;10.616;2023-12-04T08:28:51;24.58;;;11.15;;
57627;SDS011;43451;49.060;10.616;2023-12-04T08:31:20;23.73;;;11.30;;
57627;SDS011;43451;49.060;10.616;2023-12-04T08:33:45;24.58;;;12.10;;
57627;SDS011;43451;49.060;10.616;2023-12-04T08:36:11;23.65;;;11.35;;
57627;SDS011;43451;49.060;10.616;2023-12-04T08:38:36;26.40;;;12.45;;
57627;SDS011;43451;49.060;10.616;2023-12-04T08:47:12;28.77;;;13.10;;
57627;SDS011;43451;49.060;10.616;2023-12-04T08:49:39;24.20;;;12.40;;
57627;SDS011;43451;49.060;10.616;2023-12-04T08:52:13;26.30;;;12.27;;
57627;SDS011;43451;49.060;10.616;2023-12-04T08:54:46;27.70;;;12.52;;
57627;SDS011;43451;49.060;10.616;2023-12-04T08:57:28;26.42;;;12.90;;
57627;SDS011;43451;49.060;10.616;2023-12-04T08:59:53;26.67;;;12.45;;
57627;SDS011;43451;49.060;10.616;2023-12-04T09:02:19;28.08;;;13.00;;
57627;SDS011;43451;49.060;10.616;2023-12-04T09:07:35;24.83;;;12.07;;
57627;SDS011;43451;49.060;10.616;2023-12-04T09:10:01;27.05;;;12.35;;
57627;SDS011;43451;49.060;10.616;2023-12-04T09:12:27;25.70;;;12.55;;
57627;SDS011;43451;49.060;10.616;2023-12-04T09:18:16;25.85;;;12.30;;
57627;SDS011;43451;49.060;10.616;2023-12-04T09:20:41;29.52;;;13.18;;
57627;SDS011;43451;49.060;10.616;2023-12-04T09:23:06;25.15;;;12.50;;
57627;SDS011;43451;49.060;10.616;2023-12-04T09:25:42;23.55;;;11.00;;
57627;SDS011;43451;49.060;10.616;2023-12-04T09:28:08;26.13;;;12.40;;
57627;SDS011;43451;49.060;10.616;2023-12-04T09:30:33;26.02;;;11.88;;
57627;SDS011;43451;49.060;10.616;2023-12-04T09:33:00;25.37;;;12.63;;
57627;SDS011;43451;49.060;10.616;2023-12-04T09:35:26;29.65;;;12.10;;
57627;SDS011;43451;49.060;10.616;2023-12-04T09:40:43;28.55;;;12.65;;
57627;SDS011;43451;49.060;10.616;2023-12-04T09:43:09;23.38;;;11.88;;
57627;SDS011;43451;49.060;10.616;2023-12-04T09:45:48;26.00;;;12.50;;
57627;SDS011;43451;49.060;10.616;2023-12-04T09:51:08;27.90;;;12.48;;
57627;SDS011;43451;49.060;10.616;2023-12-04T09:53:34;29.65;;;14.63;;
57627;SDS011;43451;49.060;10.616;2023-12-04T09:56:00;27.40;;;13.65;;
57627;SDS011;43451;49.060;10.616;2023-12-04T09:58:28;24.25;;;12.23;;
57627;SDS011;43451;49.060;10.616;2023-12-04T10:03:52;27.65;;;12.80;;
57627;SDS011;43451;49.060;10.616;2023-12-04T10:16:28;27.35;;;13.90;;
57627;SDS011;43451;49.060;10.616;2023-12-04T10:22:18;28.67;;;14.05;;
57627;SDS011;43451;49.060;10.616;2023-12-04T10:24:43;27.65;;;13.70;;
57627;SDS011;43451;49.060;10.616;2023-12-04T10:27:13;30.23;;;14.60;;
57627;SDS011;43451;49.060;10.616;2023-12-04T10:33:02;29.70;;;14.45;;
57627;SDS011;43451;49.060;10.616;2023-12-04T10:41:28;25.92;;;13.23;;
57627;SDS011;43451;49.060;10.616;2023-12-04T10:52:45;25.65;;;13.57;;
57627;SDS011;43451;49.060;10.616;2023-12-04T10:58:13;24.77;;;12.35;;
57627;SDS011;43451;49.060;10.616;2023-12-04T11:06:39;20.60;;;10.45;;
57627;SDS011;43451;49.060;10.616;2023-12-04T11:09:05;20.17;;;10.65;;
57627;SDS011;43451;49.060;10.616;2023-12-04T11:11:34;19.33;;;10.38;;
57627;SDS011;43451;49.060;10.616;2023-12-04T11:14:04;22.83;;;10.90;;
57627;SDS011;43451;49.060;10.616;2023-12-04T11:19:06;19.45;;;10.63;;
57627;SDS011;43451;49.060;10.616;2023-12-04T11:21:37;20.55;;;11.45;;
57627;SDS011;43451;49.060;10.616;2023-12-04T11:24:04;24.63;;;11.13;;
57627;SDS011;43451;49.060;10.616;2023-12-04T11:26:31;24.20;;;12.15;;
57627;SDS011;43451;49.060;10.616;2023-12-04T11:28:58;22.10;;;11.20;;
57627;SDS011;43451;49.060;10.616;2023-12-04T11:31:25;24.95;;;12.27;;
57627;SDS011;43451;49.060;10.616;2023-12-04T11:33:50;22.63;;;11.55;;
57627;SDS011;43451;49.060;10.616;2023-12-04T11:36:16;24.85;;;11.57;;
57627;SDS011;43451;49.060;10.616;2023-12-04T11:38:45;22.00;;;11.43;;
57627;SDS011;43451;49.060;10.616;2023-12-04T11:41:15;25.60;;;11.10;;
57627;SDS011;43451;49.060;10.616;2023-12-04T11:43:47;23.27;;;11.85;;
57627;SDS011;43451;49.060;10.616;2023-12-04T11:49:47;23.42;;;11.68;;
57627;SDS011;43451;49.060;10.616;2023-12-04T11:52:12;24.40;;;12.18;;
57627;SDS011;43451;49.060;10.616;2023-12-04T11:57:34;25.45;;;12.27;;
57627;SDS011;43451;49.060;10.616;2023-12-04T12:00:11;25.77;;;12.73;;
57627;SDS011;43451;49.060;10.616;2023-12-04T12:02:40;27.02;;;12.73;;
57627;SDS011;43451;49.060;10.616;2023-12-04T12:05:06;26.55;;;12.82;;
57627;SDS011;43451;49.060;10.616;2023-12-04T12:07:33;28.95;;;13.48;;
57627;SDS011;43451;49.060;10.616;2023-12-04T12:09:59;23.75;;;12.20;;
57627;SDS011;43451;49.060;10.616;2023-12-04T12:12:25;25.95;;;12.40;;
57627;SDS011;43451;49.060;10.616;2023-12-04T12:14:51;24.60;;;12.85;;
57627;SDS011;43451;49.060;10.616;2023-12-04T12:17:17;27.58;;;12.88;;
57627;SDS011;43451;49.060;10.616;2023-12-04T12:19:42;26.10;;;13.23;;
57627;SDS011;43451;49.060;10.616;2023-12-04T12:22:09;25.30;;;12.45;;
57627;SDS011;43451;49.060;10.616;2023-12-04T12:24:35;26.55;;;13.32;;
57627;SDS011;43451;49.060;10.616;2023-12-04T12:27:01;23.88;;;12.90;;
57627;SDS011;43451;49.060;10.616;2023-12-04T12:29:27;26.33;;;13.20;;
57627;SDS011;43451;49.060;10.616;2023-12-04T12:31:53;26.13;;;13.02;;
57627;SDS011;43451;49.060;10.616;2023-12-04T12:34:18;23.60;;;12.38;;
57627;SDS011;43451;49.060;10.616;2023-12-04T12:36:44;24.42;;;13.02;;
57627;SDS011;43451;49.060;10.616;2023-12-04T12:39:09;27.83;;;13.43;;
57627;SDS011;43451;49.060;10.616;2023-12-04T12:41:37;25.77;;;13.23;;
57627;SDS011;43451;49.060;10.616;2023-12-04T12:44:03;27.75;;;13.88;;
57627;SDS011;43451;49.060;10.616;2023-12-04T12:46:28;27.55;;;13.13;;
57627;SDS011;43451;49.060;10.616;2023-12-04T12:48:54;25.50;;;13.38;;
57627;SDS011;43451;49.060;10.616;2023-12-04T12:51:20;28.20;;;13.68;;
57627;SDS011;43451;49.060;10.616;2023-12-04T12:53:45;26.27;;;13.18;;
57627;SDS011;43451;49.060;10.616;2023-12-04T12:56:11;27.60;;;13.40;;
57627;SDS011;43451;49.060;10.616;2023-12-04T12:58:36;24.83;;;12.77;;
57627;SDS011;43451;49.060;10.616;2023-12-04T13:01:02;35.42;;;17.23;;
57627;SDS011;43451;49.060;10.616;2023-12-04T13:03:28;26.20;;;13.40;;
57627;SDS011;43451;49.060;10.616;2023-12-04T13:05:56;28.20;;;13.57;;
57627;SDS011;43451;49.060;10.616;2023-12-04T13:08:22;26.02;;;13.13;;
57627;SDS011;43451;49.060;10.616;2023-12-04T13:10:47;25.88;;;13.43;;
57627;SDS011;43451;49.060;10.616;2023-12-04T13:13:13;26.15;;;12.95;;
57627;SDS011;43451;49.060;10.616;2023-12-04T13:15:39;27.73;;;13.80;;
57627;SDS011;43451;49.060;10.616;2023-12-04T13:18:06;25.83;;;13.45;;
57627;SDS011;43451;49.060;10.616;2023-12-04T13:20:32;26.25;;;13.48;;
57627;SDS011;43451;49.060;10.616;2023-12-04T13:22:59;26.05;;;12.80;;
57627;SDS011;43451;49.060;10.616;2023-12-04T13:25:24;24.92;;;13.27;;
57627;SDS011;43451;49.060;10.616;2023-12-04T13:27:50;26.10;;;13.38;;
57627;SDS011;43451;49.060;10.616;2023-12-04T13:30:16;30.13;;;14.27;;
57627;SDS011;43451;49.060;10.616;2023-12-04T13:32:41;26.52;;;13.02;;
57627;SDS011;43451;49.060;10.616;2023-12-04T13:35:08;25.98;;;13.43;;
57627;SDS011;43451;49.060;10.616;2023-12-04T13:37:34;28.73;;;13.93;;
57627;SDS011;43451;49.060;10.616;2023-12-04T13:40:02;35.53;;;13.85;;
57627;SDS011;43451;49.060;10.616;2023-12-04T13:42:34;30.48;;;14.23;;
57627;SDS011;43451;49.060;10.616;2023-12-04T13:45:18;26.83;;;13.90;;
57627;SDS011;43451;49.060;10.616;2023-12-04T13:47:48;26.58;;;13.63;;
57627;SDS011;43451;49.060;10.616;2023-12-04T13:50:14;25.70;;;13.35;;
57627;SDS011;43451;49.060;10.616;2023-12-04T13:52:40;26.02;;;13.73;;
57627;SDS011;43451;49.060;10.616;2023-12-04T13:55:07;27.52;;;13.90;;
57627;SDS011;43451;49.060;10.616;2023-12-04T13:57:44;28.17;;;13.77;;
57627;SDS011;43451;49.060;10.616;2023-12-04T14:00:25;27.55;;;13.30;;
57627;SDS011;43451;49.060;10.616;2023-12-04T14:02:51;26.08;;;13.57;;
57627;SDS011;43451;49.060;10.616;2023-12-04T14:05:29;25.23;;;13.18;;
57627;SDS011;43451;49.060;10.616;2023-12-04T14:07:55;26.98;;;13.30;;
57627;SDS011;43451;49.060;10.616;2023-12-04T14:10:21;24.83;;;12.88;;
57627;SDS011;43451;49.060;10.616;2023-12-04T14:12:47;27.63;;;13.15;;
57627;SDS011;43451;49.060;10.616;2023-12-04T14:15:13;27.35;;;13.13;;
57627;SDS011;43451;49.060;10.616;2023-12-04T14:17:39;27.20;;;12.98;;
57627;SDS011;43451;49.060;10.616;2023-12-04T14:20:05;24.52;;;11.90;;
57627;SDS011;43451;49.060;10.616;2023-12-04T14:22:38;24.25;;;12.20;;
57627;SDS011;43451;49.060;10.616;2023-12-04T14:25:06;22.95;;;11.52;;
57627;SDS011;43451;49.060;10.616;2023-12-04T14:27:32;21.92;;;10.68;;
57627;SDS011;43451;49.060;10.616;2023-12-04T14:29:57;22.02;;;11.38;;
57627;SDS011;43451;49.060;10.616;2023-12-04T14:32:23;23.77;;;11.70;;
57627;SDS011;43451;49.060;10.616;2023-12-04T14:34:48;24.40;;;11.88;;
57627;SDS011;43451;49.060;10.616;2023-12-04T14:37:14;24.38;;;12.70;;
57627;SDS011;43451;49.060;10.616;2023-12-04T14:39:39;28.35;;;12.57;;
57627;SDS011;43451;49.060;10.616;2023-12-04T14:42:05;24.83;;;12.35;;
57627;SDS011;43451;49.060;10.616;2023-12-04T14:44:31;25.45;;;12.60;;
57627;SDS011;43451;49.060;10.616;2023-12-04T14:46:57;25.90;;;12.93;;
57627;SDS011;43451;49.060;10.616;2023-12-04T14:49:24;23.70;;;12.63;;
57627;SDS011;43451;49.060;10.616;2023-12-04T14:51:49;26.02;;;13.48;;
57627;SDS011;43451;49.060;10.616;2023-12-04T14:54:15;24.70;;;12.07;;
57627;SDS011;43451;49.060;10.616;2023-12-04T14:56:49;21.75;;;10.65;;
57627;SDS011;43451;49.060;10.616;2023-12-04T15:04:26;29.48;;;12.80;;
57627;SDS011;43451;49.060;10.616;2023-12-04T15:09:38;21.58;;;10.32;;
57627;SDS011;43451;49.060;10.616;2023-12-04T15:12:27;25.42;;;12.63;;
57627;SDS011;43451;49.060;10.616;2023-12-04T15:15:01;21.75;;;10.93;;
57627;SDS011;43451;49.060;10.616;2023-12-04T15:17:45;19.52;;;10.70;;
57627;SDS011;43451;49.060;10.616;2023-12-04T15:20:16;21.02;;;10.57;;
57627;SDS011;43451;49.060;10.616;2023-12-04T15:23:03;19.52;;;10.27;;
57627;SDS011;43451;49.060;10.616;2023-12-04T15:25:29;20.00;;;10.20;;
57627;SDS011;43451;49.060;10.616;2023-12-04T15:27:54;21.80;;;10.43;;
57627;SDS011;43451;49.060;10.616;2023-12-04T15:30:20;21.42;;;10.25;;
57627;SDS011;43451;49.060;10.616;2023-12-04T15:32:45;23.15;;;10.38;;
57627;SDS011;43451;49.060;10.616;2023-12-04T15:35:11;22.48;;;11.15;;
57627;SDS011;43451;49.060;10.616;2023-12-04T15:37:37;24.27;;;11.07;;
57627;SDS011;43451;49.060;10.616;2023-12-04T15:40:02;23.88;;;11.38;;
57627;SDS011;43451;49.060;10.616;2023-12-04T15:42:30;23.17;;;11.20;;
57627;SDS011;43451;49.060;10.616;2023-12-04T15:44:57;23.75;;;11.27;;
57627;SDS011;43451;49.060;10.616;2023-12-04T15:47:22;22.63;;;10.82;;
57627;SDS011;43451;49.060;10.616;2023-12-04T15:49:49;21.08;;;10.05;;
57627;SDS011;43451;49.060;10.616;2023-12-04T15:52:15;24.52;;;11.25;;
57627;SDS011;43451;49.060;10.616;2023-12-04T15:54:44;22.27;;;10.82;;
57627;SDS011;43451;49.060;10.616;2023-12-04T15:57:10;21.15;;;10.65;;
57627;SDS011;43451;49.060;10.616;2023-12-04T15:59:36;23.60;;;11.35;;
57627;SDS011;43451;49.060;10.616;2023-12-04T16:02:02;23.13;;;11.40;;
57627;SDS011;43451;49.060;10.616;2023-12-04T16:04:29;24.17;;;11.07;;
57627;SDS011;43451;49.060;10.616;2023-12-04T16:06:55;21.23;;;10.40;;
57627;SDS011;43451;49.060;10.616;2023-12-04T16:09:21;22.33;;;10.80;;
57627;SDS011;43451;49.060;10.616;2023-12-04T16:11:46;24.15;;;11.68;;
57627;SDS011;43451;49.060;10.616;2023-12-04T16:14:12;21.35;;;10.77;;
57627;SDS011;43451;49.060;10.616;2023-12-04T16:16:39;22.02;;;11.20;;
57627;SDS011;43451;49.060;10.616;2023-12-04T16:19:05;21.57;;;11.03;;
57627;SDS011;43451;49.060;10.616;2023-12-04T16:21:30;22.63;;;10.65;;
57627;SDS011;43451;49.060;10.616;2023-12-04T16:23:56;21.33;;;10.77;;
57627;SDS011;43451;49.060;10.616;2023-12-04T16:26:23;20.88;;;10.75;;
57627;SDS011;43451;49.060;10.616;2023-12-04T16:28:49;21.65;;;10.80;;
57627;SDS011;43451;49.060;10.616;2023-12-04T16:31:15;21.15;;;11.18;;
57627;SDS011;43451;49.060;10.616;2023-12-04T16:33:40;23.05;;;11.38;;
57627;SDS011;43451;49.060;10.616;2023-12-04T16:36:06;22.10;;;10.60;;
57627;SDS011;43451;49.060;10.616;2023-12-04T16:38:32;19.60;;;9.80;;
57627;SDS011;43451;49.060;10.616;2023-12-04T16:40:58;21.10;;;10.52;;
57627;SDS011;43451;49.060;10.616;2023-12-04T16:43:24;21.88;;;9.95;;
57627;SDS011;43451;49.060;10.616;2023-12-04T16:45:49;23.15;;;12.15;;
57627;SDS011;43451;49.060;10.616;2023-12-04T16:48:15;23.02;;;11.35;;
57627;SDS011;43451;49.060;10.616;2023-12-04T16:50:41;20.63;;;10.60;;
57627;SDS011;43451;49.060;10.616;2023-12-04T16:53:06;25.63;;;11.85;;
57627;SDS011;43451;49.060;10.616;2023-12-04T16:55:32;21.85;;;11.32;;
57627;SDS011;43451;49.060;10.616;2023-12-04T16:57:59;21.95;;;11.82;;
57627;SDS011;43451;49.060;10.616;2023-12-04T17:00:28;21.70;;;11.18;;
57627;SDS011;43451;49.060;10.616;2023-12-04T17:02:54;20.63;;;10.55;;
57627;SDS011;43451;49.060;10.616;2023-12-04T17:05:19;24.10;;;11.10;;